createdAt,value
2019-04-23T00:01:36.738Z,15.98
2019-04-23T00:04:08.554Z,15.44
2019-04-23T00:06:42.957Z,15.63
2019-04-23T00:09:13.077Z,15.60
2019-04-23T00:11:41.515Z,15.77
2019-04-23T00:14:15.105Z,15.03
2019-04-23T00:16:47.395Z,14.49
2019-04-23T00:19:10.293Z,15.26
2019-04-23T00:21:55.078Z,15.09
2019-04-23T00:25:07.765Z,13.91
2019-04-23T00:27:23.956Z,14.89
2019-04-23T00:29:50.518Z,15.63
2019-04-23T00:32:15.654Z,15.07
2019-04-23T00:34:47.996Z,14.93
2019-04-23T00:37:24.329Z,14.85
2019-04-23T00:39:46.778Z,14.80
2019-04-23T00:42:16.842Z,14.49
2019-04-23T00:44:46.126Z,14.45
2019-04-23T00:47:19.292Z,13.88
2019-04-23T00:49:53.282Z,15.11
2019-04-23T00:52:23.692Z,13.96
2019-04-23T00:54:51.917Z,15.22
2019-04-23T00:57:24.262Z,15.40
2019-04-23T00:59:57.752Z,13.13
2019-04-23T01:02:16.612Z,14.75
2019-04-23T01:04:48.045Z,15.24
2019-04-23T01:07:18.940Z,15.24
2019-04-23T01:12:31.993Z,15.04
2019-04-23T01:14:57.377Z,15.87
2019-04-23T01:17:33.714Z,14.93
2019-04-23T01:20:04.776Z,15.32
2019-04-23T01:22:12.639Z,15.81
2019-04-23T01:24:48.368Z,15.81
2019-04-23T01:28:04.311Z,15.41
2019-04-23T01:30:18.065Z,15.29
2019-04-23T01:32:43.679Z,16.13
2019-04-23T01:35:17.625Z,15.24
2019-04-23T01:37:52.327Z,15.46
2019-04-23T01:40:20.276Z,15.46
2019-04-23T01:43:00.230Z,15.57
2019-04-23T01:45:20.207Z,15.88
2019-04-23T01:47:50.067Z,15.21
2019-04-23T01:52:53.932Z,15.94
2019-04-23T01:55:21.352Z,15.57
2019-04-23T01:57:58.180Z,16.01
2019-04-23T02:00:24.190Z,15.65
2019-04-23T02:02:55.428Z,15.93
2019-04-23T02:05:30.621Z,15.93
2019-04-23T02:10:32.943Z,15.58
2019-04-23T02:12:57.075Z,15.12
2019-04-23T02:15:23.077Z,15.12
2019-04-23T02:18:02.146Z,15.75
2019-04-23T02:41:04.573Z,14.92
2019-04-23T02:43:29.706Z,14.99
2019-04-23T02:48:24.696Z,14.98
2019-04-23T02:56:04.371Z,15.19
2019-04-23T02:58:39.000Z,15.21
2019-04-23T03:01:18.300Z,15.21
2019-04-23T03:03:33.274Z,15.18
2019-04-23T03:05:57.346Z,14.88
2019-04-23T03:19:02.927Z,15.37
2019-04-23T03:39:37.444Z,14.81
2019-04-23T03:41:53.926Z,14.86
2019-04-23T03:44:29.057Z,14.33
2019-04-23T03:46:55.323Z,14.53
2019-04-23T03:49:29.995Z,14.53
2019-04-23T03:59:37.172Z,13.45
2019-04-23T04:02:15.494Z,14.71
2019-04-23T04:07:28.362Z,15.18
2019-04-23T04:09:36.858Z,15.18
2019-04-23T04:12:05.995Z,14.73
2019-04-23T04:14:38.119Z,14.69
2019-04-23T04:19:40.037Z,14.79
2019-04-23T04:24:34.676Z,13.69
2019-04-23T04:27:05.424Z,14.30
2019-04-23T04:32:02.659Z,14.46
2019-04-23T04:39:43.619Z,14.41
2019-04-23T04:42:04.619Z,14.55
2019-04-23T04:52:34.545Z,14.79
2019-04-23T04:54:47.793Z,13.81
2019-04-23T04:57:10.400Z,14.85
2019-04-23T04:59:51.650Z,14.25
2019-04-23T05:02:14.626Z,14.25
2019-04-23T05:04:48.302Z,14.39
2019-04-23T05:07:09.306Z,14.39
2019-04-23T05:09:48.445Z,14.88
2019-04-23T05:12:19.081Z,13.73
2019-04-23T05:14:58.749Z,14.11
2019-04-23T05:17:30.207Z,14.11
2019-04-23T05:22:22.625Z,15.55
2019-04-23T05:24:45.833Z,15.43
2019-04-23T05:27:29.033Z,15.43
2019-04-23T05:29:53.163Z,15.07
2019-04-23T05:32:18.858Z,15.07
2019-04-23T05:34:48.623Z,14.82
2019-04-23T05:37:23.113Z,14.29
2019-04-23T05:39:52.170Z,15.64
2019-04-23T05:42:20.127Z,15.03
2019-04-23T05:44:50.690Z,14.97
2019-04-23T05:47:25.490Z,14.52
2019-04-23T05:49:54.478Z,14.27
2019-04-23T05:52:27.834Z,15.25
2019-04-23T05:54:56.281Z,14.84
2019-04-23T05:57:20.691Z,15.00
2019-04-23T06:02:26.516Z,15.52
2019-04-23T06:04:55.203Z,15.29
2019-04-23T06:09:59.510Z,15.76
2019-04-23T06:12:25.394Z,17.61
2019-04-23T06:14:57.588Z,18.33
2019-04-23T06:17:25.105Z,18.26
2019-04-23T06:20:03.170Z,19.60
2019-04-23T06:24:57.891Z,21.59
2019-04-23T06:29:57.006Z,23.28
2019-04-23T06:32:34.245Z,23.10
2019-04-23T06:34:56.844Z,24.25
2019-04-23T06:39:59.839Z,23.01
2019-04-23T06:42:29.579Z,24.86
2019-04-23T06:44:59.578Z,23.52
2019-04-23T06:47:28.802Z,21.63
2019-04-23T06:49:58.146Z,21.66
2019-04-23T06:52:25.492Z,21.52
2019-04-23T06:55:09.351Z,21.84
2019-04-23T06:57:42.620Z,21.66
2019-04-23T07:00:08.365Z,23.12
2019-04-23T07:02:39.080Z,24.14
2019-04-23T07:05:14.544Z,22.28
2019-04-23T07:10:11.416Z,23.09
2019-04-23T07:15:25.045Z,23.18
2019-04-23T07:17:34.298Z,23.42
2019-04-23T07:20:13.158Z,22.84
2019-04-23T07:22:34.671Z,23.20
2019-04-23T07:25:15.927Z,23.86
2019-04-23T07:27:33.319Z,23.08
2019-04-23T07:30:13.118Z,22.82
2019-04-23T07:32:44.712Z,24.74
2019-04-23T07:35:14.197Z,26.71
2019-04-23T07:37:47.501Z,25.78
2019-04-23T07:40:26.990Z,26.98
2019-04-23T07:43:03.553Z,23.45
2019-04-23T07:45:53.061Z,25.14
2019-04-23T07:48:38.850Z,26.86
2019-04-23T07:50:55.258Z,26.08
2019-04-23T07:53:22.877Z,25.81
2019-04-23T07:58:29.271Z,27.26
2019-04-23T08:01:09.581Z,26.39
2019-04-23T08:05:55.329Z,26.51
2019-04-23T08:08:26.823Z,28.33
2019-04-23T08:13:53.964Z,27.98
2019-04-23T08:16:31.174Z,26.25
2019-04-23T08:19:25.114Z,26.91
2019-04-23T08:21:18.212Z,27.47
2019-04-23T08:24:06.587Z,26.80
2019-04-23T08:26:59.675Z,27.24
2019-04-23T08:29:45.875Z,26.68
2019-04-23T08:32:12.032Z,26.31
2019-04-23T08:37:09.296Z,28.06
2019-04-23T08:45:28.570Z,28.62
2019-04-23T08:48:18.761Z,27.83
2019-04-23T08:50:46.541Z,30.25
2019-04-23T08:53:31.286Z,29.99
2019-04-23T08:58:19.119Z,30.42
2019-04-23T09:03:31.265Z,28.96
2019-04-23T09:10:55.834Z,30.64
2019-04-23T09:15:51.732Z,27.76
2019-04-23T09:18:21.394Z,29.95
2019-04-23T09:20:52.886Z,30.98
2019-04-23T09:23:31.972Z,31.17
2019-04-23T09:25:54.166Z,30.44
2019-04-23T09:28:33.202Z,30.61
2019-04-23T09:30:54.193Z,30.48
2019-04-23T09:36:42.121Z,28.89
2019-04-23T09:39:27.718Z,28.90
2019-04-23T09:45:38.957Z,29.53
2019-04-23T09:48:04.683Z,26.87
2019-04-23T09:50:46.887Z,28.33
2019-04-23T09:55:37.429Z,30.44
2019-04-23T09:58:16.709Z,28.28
2019-04-23T10:00:40.701Z,27.11
2019-04-23T10:03:03.558Z,27.75
2019-04-23T10:05:28.893Z,28.83
2019-04-23T10:07:59.899Z,28.21
2019-04-23T10:10:18.667Z,28.70
2019-04-23T10:12:48.208Z,30.47
2019-04-23T10:15:24.563Z,28.40
2019-04-23T10:17:49.864Z,28.75
2019-04-23T10:20:20.476Z,28.58
2019-04-23T10:22:50.443Z,27.52
2019-04-23T10:25:19.406Z,27.20
2019-04-23T10:27:55.129Z,26.63
2019-04-23T10:30:19.659Z,28.62
2019-04-23T10:32:49.533Z,27.52
2019-04-23T10:35:28.595Z,28.80
2019-04-23T10:37:54.719Z,30.72
2019-04-23T10:40:26.267Z,30.02
2019-04-23T10:42:51.505Z,28.65
2019-04-23T10:45:53.435Z,29.77
2019-04-23T10:49:17.783Z,29.30
2019-04-23T10:51:33.785Z,28.86
2019-04-23T10:54:15.850Z,30.02
2019-04-23T10:56:42.555Z,29.33
2019-04-23T10:59:12.024Z,28.02
2019-04-23T11:01:45.509Z,28.94
2019-04-23T11:07:09.957Z,28.47
2019-04-23T11:09:32.888Z,28.95
2019-04-23T11:11:53.251Z,30.23
2019-04-23T11:14:25.159Z,28.51
2019-04-23T11:16:57.652Z,29.52
2019-04-23T11:19:25.748Z,28.60
2019-04-23T11:24:38.154Z,28.78
2019-04-23T11:27:01.862Z,28.98
2019-04-23T11:29:26.891Z,31.58
2019-04-23T11:32:06.779Z,28.47
2019-04-23T11:37:14.482Z,30.06
2019-04-23T11:39:31.175Z,28.70
2019-04-23T11:41:59.835Z,27.92
2019-04-23T11:54:30.770Z,27.89
2019-04-23T11:57:22.504Z,26.31
2019-04-23T12:02:06.343Z,25.50
2019-04-23T12:05:03.777Z,24.54
2019-04-23T12:07:36.094Z,24.96
2019-04-23T12:10:22.194Z,26.62
2019-04-23T12:15:18.322Z,24.78
2019-04-23T12:23:03.036Z,23.60
2019-04-23T12:25:40.706Z,24.73
2019-04-23T12:27:44.074Z,25.53
2019-04-23T12:30:27.391Z,25.54
2019-04-23T12:40:46.030Z,25.41
2019-04-23T12:45:43.889Z,24.33
2019-04-23T12:53:29.419Z,25.19
2019-04-23T12:55:43.767Z,25.67
2019-04-23T13:00:52.737Z,25.78
2019-04-23T13:03:34.171Z,25.31
2019-04-23T13:05:46.079Z,25.26
2019-04-23T13:10:49.597Z,23.95
2019-04-23T13:15:51.960Z,26.11
2019-04-23T13:18:31.892Z,25.01
2019-04-23T13:20:58.720Z,24.67
2019-04-23T13:23:30.738Z,23.82
2019-04-23T13:25:57.072Z,24.09
2019-04-23T13:28:32.006Z,22.97
2019-04-23T13:31:09.429Z,23.86
2019-04-23T13:33:38.887Z,22.76
2019-04-23T13:36:12.036Z,24.94
2019-04-23T13:41:08.432Z,25.82
2019-04-23T13:43:40.486Z,23.69
2019-04-23T13:46:13.199Z,24.26
2019-04-23T13:48:29.991Z,25.36
2019-04-23T13:53:49.729Z,24.79
2019-04-23T13:56:11.159Z,24.67
2019-04-23T13:58:50.417Z,25.76
2019-04-23T14:03:45.187Z,24.73
2019-04-23T14:09:22.569Z,24.19
2019-04-23T14:11:19.419Z,24.61
2019-04-23T14:13:51.024Z,25.24
2019-04-23T14:18:56.169Z,22.65
2019-04-23T14:21:20.411Z,24.12
2019-04-23T14:24:04.546Z,24.33
2019-04-23T14:26:25.541Z,25.56
2019-04-23T14:36:19.471Z,24.74
2019-04-23T14:38:49.561Z,24.48
2019-04-23T14:43:56.417Z,24.18
2019-04-23T14:46:38.480Z,24.77
2019-04-23T14:49:07.087Z,26.14
2019-04-23T14:51:34.216Z,26.63
2019-04-23T14:53:48.441Z,26.14
2019-04-23T14:56:30.162Z,24.98
2019-04-23T15:03:50.517Z,25.30
2019-04-23T15:06:27.763Z,26.84
2019-04-23T15:11:45.353Z,25.24
2019-04-23T15:13:58.525Z,25.43
2019-04-23T15:16:31.611Z,23.65
2019-04-23T15:19:19.914Z,24.73
2019-04-23T15:22:13.507Z,25.50
2019-04-23T15:28:54.481Z,25.08
2019-04-23T15:34:15.847Z,24.67
2019-04-23T15:51:52.069Z,24.10
2019-04-23T15:54:19.642Z,24.96
2019-04-23T15:56:51.991Z,26.20
2019-04-23T16:01:42.006Z,25.55
2019-04-23T16:03:51.723Z,25.91
2019-04-23T16:06:23.533Z,25.27
2019-04-23T16:09:12.663Z,24.68
2019-04-23T16:17:08.084Z,24.16
2019-04-23T16:19:24.470Z,25.31
2019-04-23T16:22:01.609Z,25.41
2019-04-23T16:24:20.518Z,25.70
2019-04-23T16:27:04.416Z,25.26
2019-04-23T16:29:38.030Z,25.43
2019-04-23T16:32:04.044Z,23.99
2019-04-23T16:34:39.387Z,24.13
2019-04-23T16:37:23.236Z,24.06
2019-04-23T16:39:56.356Z,24.72
2019-04-23T16:42:25.197Z,25.32
2019-04-23T16:45:07.568Z,25.04
2019-04-23T16:50:00.272Z,24.40
2019-04-23T16:52:21.545Z,23.73
2019-04-23T16:54:54.961Z,23.86
2019-04-23T16:57:29.018Z,24.57
2019-04-23T17:00:07.297Z,24.87
2019-04-23T17:04:57.937Z,24.91
2019-04-23T17:07:20.331Z,24.58
2019-04-23T17:10:12.737Z,24.83
2019-04-23T17:12:17.604Z,23.84
2019-04-23T17:15:02.773Z,25.19
2019-04-23T17:17:25.335Z,24.17
2019-04-23T17:19:59.397Z,23.71
2019-04-23T17:22:26.148Z,24.77
2019-04-23T17:25:07.467Z,24.15
2019-04-23T17:27:34.909Z,23.64
2019-04-23T17:30:06.452Z,23.84
2019-04-23T17:32:39.277Z,23.21
2019-04-23T17:37:41.328Z,23.99
2019-04-23T17:40:24.549Z,24.02
2019-04-23T17:42:55.420Z,23.70
2019-04-23T17:48:08.777Z,23.18
2019-04-23T17:50:44.264Z,22.65
2019-04-23T17:55:54.595Z,23.36
2019-04-23T17:58:19.835Z,23.70
2019-04-23T18:00:55.247Z,23.51
2019-04-23T18:03:13.079Z,22.21
2019-04-23T18:05:54.415Z,23.36
2019-04-23T18:08:19.373Z,22.97
2019-04-23T18:10:59.485Z,22.32
2019-04-23T18:13:20.976Z,23.90
2019-04-23T18:16:04.505Z,24.02
2019-04-23T18:18:31.064Z,22.40
2019-04-23T18:21:32.751Z,22.74
2019-04-23T18:24:16.856Z,23.99
2019-04-23T18:26:56.875Z,22.82
2019-04-23T18:29:35.803Z,24.04
2019-04-23T18:32:05.863Z,23.01
2019-04-23T18:34:47.121Z,22.93
2019-04-23T18:37:01.830Z,23.58
2019-04-23T18:39:32.922Z,22.30
2019-04-23T18:42:13.716Z,23.64
2019-04-23T18:44:36.327Z,21.96
2019-04-23T18:47:07.673Z,23.95
2019-04-23T18:49:42.561Z,23.42
2019-04-23T18:52:10.052Z,22.69
2019-04-23T18:54:37.007Z,23.45
2019-04-23T18:57:13.048Z,23.16
2019-04-23T18:59:47.471Z,22.80
2019-04-23T19:02:37.024Z,22.28
2019-04-23T19:07:53.283Z,22.89
2019-04-23T19:10:48.301Z,23.00
2019-04-23T19:13:18.872Z,23.03
2019-04-23T19:18:19.213Z,23.38
2019-04-23T19:23:35.197Z,23.13
2019-04-23T19:25:45.452Z,23.99
2019-04-23T19:28:34.631Z,23.76
2019-04-23T19:31:16.341Z,23.82
2019-04-23T19:33:42.500Z,23.64
2019-04-23T19:38:32.976Z,23.22
2019-04-23T19:43:33.657Z,23.74
2019-04-23T19:48:45.610Z,22.87
2019-04-23T19:51:11.436Z,23.16
2019-04-23T19:58:38.489Z,23.75
2019-04-23T20:01:16.708Z,23.30
2019-04-23T20:09:10.204Z,23.35
2019-04-23T20:11:08.043Z,23.13
2019-04-23T20:13:45.354Z,23.40
2019-04-23T20:16:10.866Z,23.61
2019-04-23T20:21:03.311Z,23.15
2019-04-23T20:29:10.411Z,23.65
2019-04-23T20:32:53.939Z,23.79
2019-04-23T20:39:09.609Z,23.69
2019-04-23T20:42:07.051Z,23.31
2019-04-23T20:44:21.728Z,23.02
2019-04-23T20:47:03.325Z,23.13
2019-04-23T20:49:31.755Z,23.62
2019-04-23T20:52:00.826Z,23.53
2019-04-23T20:54:35.715Z,23.07
2019-04-23T20:57:11.926Z,23.42
2019-04-23T20:59:49.832Z,23.37
2019-04-23T21:02:42.112Z,23.30
2019-04-23T21:04:57.219Z,23.20
2019-04-23T21:07:37.716Z,22.15
2019-04-23T21:10:18.082Z,22.88
2019-04-23T21:12:43.213Z,22.95
2019-04-23T21:15:05.397Z,23.11
2019-04-23T21:17:35.617Z,23.36
2019-04-23T21:22:32.015Z,23.46
2019-04-23T21:24:51.273Z,23.46
2019-04-23T21:27:55.330Z,23.94
2019-04-23T21:30:48.965Z,23.30
2019-04-23T21:33:11.973Z,22.66
2019-04-23T21:38:46.384Z,22.72
2019-04-23T21:41:41.701Z,23.26
2019-04-23T21:46:40.264Z,23.62
2019-04-23T21:53:55.458Z,21.70
2019-04-23T21:56:31.354Z,22.00
2019-04-23T21:59:07.175Z,22.41
2019-04-23T22:01:36.679Z,21.72
2019-04-23T22:06:40.822Z,21.34
2019-04-23T22:14:13.080Z,22.84
2019-04-23T22:16:47.015Z,22.11
2019-04-23T22:21:40.843Z,22.24
2019-04-23T22:26:36.291Z,23.10
2019-04-23T22:29:14.580Z,21.85
2019-04-23T22:34:09.000Z,22.24
2019-04-23T22:36:43.179Z,22.15
2019-04-23T22:39:11.527Z,22.78
2019-04-23T22:41:46.113Z,23.28
2019-04-23T22:49:25.194Z,21.40
2019-04-23T22:52:06.492Z,21.86
2019-04-23T22:54:14.145Z,22.14
2019-04-23T22:56:50.068Z,21.50
2019-04-23T22:59:37.755Z,21.73
2019-04-23T23:01:57.296Z,21.90
2019-04-23T23:04:41.026Z,21.21
2019-04-23T23:11:54.259Z,22.62
2019-04-23T23:14:22.429Z,22.58
2019-04-23T23:16:50.421Z,22.69
2019-04-23T23:22:02.032Z,22.79
2019-04-23T23:24:18.256Z,22.40
2019-04-23T23:29:19.595Z,21.53
2019-04-23T23:34:27.763Z,21.40
2019-04-23T23:37:02.168Z,21.57
2019-04-23T23:39:29.251Z,20.84
2019-04-23T23:41:58.951Z,20.67
2019-04-23T23:47:06.047Z,22.24
2019-04-23T23:49:28.417Z,21.72
2019-04-23T23:51:57.664Z,21.17
2019-04-23T23:54:45.201Z,21.84
2019-04-23T23:57:04.089Z,21.60
